Time,TemperatureF,DewpointF,PressureIn,WindDirection,WindDirectionDegrees,WindSpeedMPH,WindSpeedGustMPH,Humidity,HourlyPrecipIn,Conditions,Clouds,dailyrainin,SoftwareType,DateUTC
2013-01-05 04:59:00,53.3,-1.9,30.16,North,0,0.0,0.0,1,0.89,,,0.88,WUHU216HW,2013-01-05 09:59:00,
2013-01-05 05:04:00,53.5,-1.8,30.16,NNW,338,0.0,0.0,1,0.89,,,0.88,WUHU216HW,2013-01-05 10:04:00,
2013-01-05 05:09:00,53.3,-1.9,30.16,NNW,338,0.0,0.0,1,0.89,,,0.88,WUHU216HW,2013-01-05 10:09:00,
2013-01-05 05:14:00,53.5,-1.8,30.16,North,0,0.0,0.0,1,0.89,,,0.88,WUHU216HW,2013-01-05 10:14:00,
2013-01-05 05:19:00,53.5,-1.8,30.16,North,0,0.0,0.0,1,0.89,,,0.88,WUHU216HW,2013-01-05 10:19:00,
2013-01-05 05:24:00,53.3,-1.9,30.16,North,0,0.0,0.0,1,0.89,,,0.88,WUHU216HW,2013-01-05 10:24:00,
2013-01-05 05:29:00,53.3,-1.9,30.16,North,0,0.0,0.0,1,0.89,,,0.88,WUHU216HW,2013-01-05 10:29:00,
2013-01-05 05:34:00,52.9,-2.1,30.16,North,0,0.0,0.0,1,0.89,,,0.88,WUHU216HW,2013-01-05 10:34:00,
2013-01-05 05:39:00,52.9,-2.1,30.16,North,0,0.0,0.0,1,0.89,,,0.88,WUHU216HW,2013-01-05 10:39:00,
2013-01-05 05:44:00,52.9,-2.1,30.16,North,0,0.0,0.0,1,0.89,,,0.88,WUHU216HW,2013-01-05 10:44:00,
2013-01-05 05:49:00,52.9,-2.1,30.16,North,0,0.0,0.0,1,0.89,,,0.88,WUHU216HW,2013-01-05 10:49:00,
2013-01-05 05:54:00,52.9,-2.1,30.16,North,0,0.0,0.0,1,0.00,,,0.88,WUHU216HW,2013-01-05 10:54:00,
2013-01-05 05:59:00,52.7,-2.3,30.16,North,0,0.0,0.0,1,0.00,,,0.88,WUHU216HW,2013-01-05 10:59:00,
2013-01-05 06:04:00,52.6,-2.5,30.17,North,0,0.0,0.0,1,0.00,,,0.88,WUHU216HW,2013-01-05 11:04:00,
2013-01-05 06:09:00,52.6,-2.5,30.17,North,0,0.0,0.0,1,0.00,,,0.88,WUHU216HW,2013-01-05 11:09:00,
2013-01-05 06:14:00,52.7,-2.3,30.17,North,0,0.0,0.0,1,0.00,,,0.88,WUHU216HW,2013-01-05 11:14:00,
2013-01-05 06:19:00,52.7,-2.3,30.17,North,0,0.0,0.0,1,0.00,,,0.88,WUHU216HW,2013-01-05 11:19:00,
2013-01-05 06:24:00,52.9,-2.1,30.17,North,0,0.0,0.0,1,0.00,,,0.88,WUHU216HW,2013-01-05 11:24:00,
2013-01-05 06:29:00,52.9,-2.1,30.17,North,0,0.0,0.0,1,0.00,,,0.88,WUHU216HW,2013-01-05 11:29:00,
2013-01-05 06:34:00,52.7,-2.3,30.17,North,0,0.0,0.0,1,0.00,,,0.88,WUHU216HW,2013-01-05 11:34:00,
2013-01-05 06:39:00,52.7,-2.3,30.17,North,0,0.0,0.0,1,0.00,,,0.88,WUHU216HW,2013-01-05 11:39:00,
2013-01-05 06:44:00,52.9,-2.1,30.17,North,0,0.0,0.0,1,0.00,,,0.88,WUHU216HW,2013-01-05 11:44:00,
2013-01-05 06:49:00,52.7,-2.3,30.17,North,0,0.0,0.0,1,0.00,,,0.88,WUHU216HW,2013-01-05 11:49:00,
2013-01-05 06:54:00,52.6,-2.5,30.17,North,0,0.0,0.0,1,0.00,,,0.88,WUHU216HW,2013-01-05 11:54:00,
2013-01-05 06:59:00,52.6,-2.5,30.17,North,0,0.0,0.0,1,0.00,,,0.88,WUHU216HW,2013-01-05 11:59:00,
2013-01-05 07:04:00,52.7,-2.3,30.18,North,0,0.0,0.0,1,0.00,,,0.88,WUHU216HW,2013-01-05 12:04:00,
2013-01-05 07:09:00,52.9,-2.1,30.18,North,0,0.0,0.0,1,0.00,,,0.88,WUHU216HW,2013-01-05 12:09:00,
2013-01-05 07:14:00,52.9,-2.1,30.18,North,0,0.0,0.0,1,0.00,,,0.88,WUHU216HW,2013-01-05 12:14:00,
2013-01-05 07:19:00,52.9,-2.1,30.18,North,0,0.0,0.0,1,0.00,,,0.88,WUHU216HW,2013-01-05 12:19:00,
2013-01-05 07:24:00,53.3,-1.9,30.18,North,0,0.0,0.0,1,0.00,,,0.88,WUHU216HW,2013-01-05 12:24:00,
2013-01-05 07:29:00,53.1,-2.1,30.18,North,0,0.0,0.0,1,0.00,,,0.88,WUHU216HW,2013-01-05 12:29:00,
2013-01-05 07:34:00,53.1,-2.1,30.18,North,0,0.0,0.0,1,0.00,,,0.88,WUHU216HW,2013-01-05 12:34:00,
2013-01-05 07:39:00,53.3,-1.9,30.18,North,0,0.0,0.0,1,0.00,,,0.88,WUHU216HW,2013-01-05 12:39:00,
2013-01-05 07:44:00,53.3,-1.9,30.19,North,0,0.0,0.0,1,0.00,,,0.88,WUHU216HW,2013-01-05 12:44:00,
2013-01-05 07:49:00,53.5,-1.8,30.19,North,0,0.0,0.0,1,0.00,,,0.88,WUHU216HW,2013-01-05 12:49:00,
2013-01-05 07:54:00,53.5,-1.8,30.19,North,0,0.0,0.0,1,0.00,,,0.88,WUHU216HW,2013-01-05 12:54:00,
2013-01-05 07:59:00,53.6,-1.6,30.19,North,0,0.0,0.0,1,0.00,,,0.88,WUHU216HW,2013-01-05 12:59:00,
2013-01-05 08:04:00,53.3,-1.9,30.19,North,0,0.0,0.0,1,0.00,,,0.88,WUHU216HW,2013-01-05 13:04:00,
2013-01-05 08:09:00,53.3,-1.9,30.19,North,0,0.0,0.0,1,0.00,,,0.88,WUHU216HW,2013-01-05 13:09:00,
2013-01-05 08:14:00,53.3,-1.9,30.19,North,0,0.0,0.0,1,0.00,,,0.88,WUHU216HW,2013-01-05 13:14:00,
2013-01-05 08:43:00,53.8,-1.4,30.20,North,0,0.0,0.0,1,0.00,,,0.88,WUHU216HW,2013-01-05 13:43:00,
2013-01-05 08:48:00,54.2,-1.2,30.19,North,0,0.0,0.0,1,0.00,,,0.88,WUHU216HW,2013-01-05 13:48:00,
2013-01-05 08:53:00,54.4,-1.1,30.20,North,0,0.0,0.0,1,0.00,,,0.88,WUHU216HW,2013-01-05 13:53:00,
2013-01-05 08:58:00,54.4,-1.1,30.20,NE,45,0.2,0.2,1,0.00,,,0.88,WUHU216HW,2013-01-05 13:58:00,
2013-01-05 09:03:00,54.4,-1.1,30.20,WNW,293,0.2,0.2,1,0.00,,,0.88,WUHU216HW,2013-01-05 14:03:00,
2013-01-05 09:08:00,54.5,-0.9,30.20,North,0,0.0,0.2,1,0.00,,,0.88,WUHU216HW,2013-01-05 14:08:00,
2013-01-05 09:13:00,54.7,-0.7,30.20,NNE,23,0.7,0.7,1,0.00,,,0.88,WUHU216HW,2013-01-05 14:13:00,
2013-01-05 09:18:00,54.7,-0.7,30.20,North,0,0.2,0.7,1,0.00,,,0.88,WUHU216HW,2013-01-05 14:18:00,
2013-01-05 09:23:00,54.5,-0.9,30.21,NW,315,0.0,0.7,1,0.00,,,0.88,WUHU216HW,2013-01-05 14:23:00,
2013-01-05 09:28:00,55.1,-0.4,30.21,ENE,68,0.0,0.2,1,0.00,,,0.88,WUHU216HW,2013-01-05 14:28:00,
2013-01-05 09:33:00,55.4,-0.2,30.21,NW,315,0.2,0.2,1,0.00,,,0.88,WUHU216HW,2013-01-05 14:33:00,
2013-01-05 09:38:00,55.4,-0.2,30.21,NE,45,0.0,0.2,1,0.00,,,0.88,WUHU216HW,2013-01-05 14:38:00,
2013-01-05 09:43:00,55.8,0.1,30.21,North,0,0.0,0.4,1,0.00,,,0.88,WUHU216HW,2013-01-05 14:43:00,
2013-01-05 09:48:00,56.0,0.2,30.21,ENE,68,0.4,0.4,1,0.00,,,0.88,WUHU216HW,2013-01-05 14:48:00,
2013-01-05 09:53:00,56.2,0.4,30.21,NNE,23,0.4,0.4,1,0.00,,,0.88,WUHU216HW,2013-01-05 14:53:00,
2013-01-05 09:58:00,56.7,0.7,30.20,NNE,23,0.0,0.4,1,0.00,,,0.88,WUHU216HW,2013-01-05 14:58:00,
2013-01-05 10:03:00,57.2,1.1,30.20,NNE,23,0.0,0.0,1,0.00,,,0.88,WUHU216HW,2013-01-05 15:03:00,
2013-01-05 10:08:00,57.4,1.3,30.20,NNE,23,0.4,0.4,1,0.00,,,0.88,WUHU216HW,2013-01-05 15:08:00,
2013-01-05 10:13:00,58.0,1.6,30.20,NW,315,0.0,0.4,1,0.00,,,0.88,WUHU216HW,2013-01-05 15:13:00,
2013-01-05 10:18:00,58.1,1.8,30.20,NE,45,1.1,1.1,6,0.00,,,0.88,WUHU216HW,2013-01-05 15:18:00,
2013-01-05 10:23:00,58.5,9.8,30.20,NW,315,0.4,1.1,15,0.00,,,0.88,WUHU216HW,2013-01-05 15:23:00,
2013-01-05 10:28:00,59.0,7.2,30.20,ENE,68,0.4,1.1,13,0.00,,,0.88,WUHU216HW,2013-01-05 15:28:00,
2013-01-05 10:33:00,59.4,19.3,30.19,ESE,113,1.1,1.1,21,0.00,,,0.88,WUHU216HW,2013-01-05 15:33:00,
2013-01-05 10:38:00,59.8,19.6,30.19,ENE,68,0.4,1.1,21,0.00,,,0.88,WUHU216HW,2013-01-05 15:38:00,
2013-01-05 10:43:00,60.1,20.9,30.19,North,0,1.8,1.8,22,0.00,,,0.88,WUHU216HW,2013-01-05 15:43:00,
2013-01-05 10:48:00,60.8,20.6,30.19,NE,45,1.8,1.8,21,0.00,,,0.88,WUHU216HW,2013-01-05 15:48:00,
2013-01-05 10:53:00,61.4,28.7,30.19,North,0,0.4,2.0,29,0.00,,,0.88,WUHU216HW,2013-01-05 15:53:00,
2013-01-05 10:58:00,61.7,28.1,30.18,ENE,68,0.2,2.0,28,0.00,,,0.88,WUHU216HW,2013-01-05 15:58:00,
2013-01-05 11:03:00,62.8,35.3,30.18,ENE,68,1.6,1.8,36,0.00,,,0.88,WUHU216HW,2013-01-05 16:03:00,
2013-01-05 11:08:00,63.2,39.1,30.18,ENE,68,4.9,4.9,41,0.00,,,0.88,WUHU216HW,2013-01-05 16:08:00,
2013-01-05 11:13:00,63.2,37.0,30.18,East,90,6.3,6.3,38,0.00,,,0.88,WUHU216HW,2013-01-05 16:13:00,
2013-01-05 11:18:00,63.4,38.6,30.18,NE,45,4.7,6.3,40,0.00,,,0.88,WUHU216HW,2013-01-05 16:18:00,
2013-01-05 11:23:00,63.9,37.7,30.18,NE,45,1.1,6.3,38,0.00,,,0.88,WUHU216HW,2013-01-05 16:23:00,
2013-01-05 11:28:00,64.3,40.6,30.17,ENE,68,2.5,4.7,42,0.00,,,0.88,WUHU216HW,2013-01-05 16:28:00,
2013-01-05 11:33:00,64.4,39.6,30.17,NE,45,4.5,4.5,40,0.00,,,0.88,WUHU216HW,2013-01-05 16:33:00,
2013-01-05 11:38:00,65.3,41.6,30.17,NE,45,1.8,4.5,42,0.00,,,0.88,WUHU216HW,2013-01-05 16:38:00,
2013-01-05 11:43:00,65.7,42.5,30.17,NNW,338,0.7,4.5,43,0.00,,,0.88,WUHU216HW,2013-01-05 16:43:00,
2013-01-05 11:48:00,66.4,44.9,30.17,NNE,23,4.3,4.3,46,0.00,,,0.88,WUHU216HW,2013-01-05 16:48:00,
2013-01-05 11:53:00,67.0,45.5,30.16,WNW,293,0.2,4.3,46,0.00,,,0.88,WUHU216HW,2013-01-05 16:53:00,
2013-01-05 11:58:00,67.1,45.6,30.16,NE,45,0.2,2.5,46,0.00,,,0.88,WUHU216HW,2013-01-05 16:58:00,
2013-01-05 12:03:00,67.3,45.7,30.16,SE,135,2.9,2.9,46,0.00,,,0.88,WUHU216HW,2013-01-05 17:03:00,
2013-01-05 12:08:00,67.7,46.7,30.15,ENE,68,2.9,2.9,47,0.00,,,0.88,WUHU216HW,2013-01-05 17:08:00,
2013-01-05 12:13:00,68.0,46.5,30.15,NNE,23,0.9,4.0,46,0.00,,,0.88,WUHU216HW,2013-01-05 17:13:00,
2013-01-05 12:18:00,68.6,48.1,30.15,ESE,113,4.5,4.5,48,0.00,,,0.88,WUHU216HW,2013-01-05 17:18:00,
2013-01-05 12:23:00,68.8,47.6,30.14,NE,45,2.5,4.5,47,0.00,,,0.88,WUHU216HW,2013-01-05 17:23:00,
2013-01-05 12:28:00,69.5,48.3,30.14,ENE,68,0.2,4.5,47,0.00,,,0.88,WUHU216HW,2013-01-05 17:28:00,
2013-01-05 12:33:00,70.4,50.9,30.14,NNE,23,0.0,2.5,50,0.00,,,0.88,WUHU216HW,2013-01-05 17:33:00,
2013-01-05 12:38:00,71.5,52.4,30.13,NW,315,0.7,1.1,51,0.00,,,0.88,WUHU216HW,2013-01-05 17:38:00,
2013-01-05 12:43:00,72.0,52.8,30.13,NE,45,0.7,1.1,51,0.00,,,0.88,WUHU216HW,2013-01-05 17:43:00,
2013-01-05 12:48:00,72.5,53.8,30.13,NE,45,1.6,1.6,52,0.00,,,0.88,WUHU216HW,2013-01-05 17:48:00,
2013-01-05 12:53:00,73.1,53.8,30.13,ENE,68,1.3,1.6,51,0.00,,,0.88,WUHU216HW,2013-01-05 17:53:00,
2013-01-05 12:58:00,73.4,54.6,30.13,NNE,23,0.0,1.6,52,0.00,,,0.88,WUHU216HW,2013-01-05 17:58:00,
2013-01-05 13:03:00,73.4,54.6,30.13,NNW,338,0.2,0.9,52,0.00,,,0.88,WUHU216HW,2013-01-05 18:03:00,
2013-01-05 13:08:00,73.8,55.5,30.12,NE,45,1.8,3.4,53,0.00,,,0.88,WUHU216HW,2013-01-05 18:08:00,
2013-01-05 13:13:00,73.8,55.0,30.12,East,90,1.6,5.1,52,0.00,,,0.88,WUHU216HW,2013-01-05 18:13:00,
2013-01-05 13:18:00,74.0,55.2,30.12,ENE,68,3.1,5.1,52,0.00,,,0.88,WUHU216HW,2013-01-05 18:18:00,
2013-01-05 13:23:00,74.2,55.9,30.12,ENE,68,0.4,3.8,53,0.00,,,0.88,WUHU216HW,2013-01-05 18:23:00,
2013-01-05 13:29:00,74.5,55.7,30.11,NE,45,2.2,3.8,52,0.00,,,0.88,WUHU216HW,2013-01-05 18:29:00,
2013-01-05 13:34:00,74.7,56.4,30.11,NE,45,0.2,2.2,53,0.00,,,0.88,WUHU216HW,2013-01-05 18:34:00,
2013-01-05 13:39:00,74.5,55.7,30.11,East,90,2.7,2.7,52,0.00,,,0.88,WUHU216HW,2013-01-05 18:39:00,
2013-01-05 13:44:00,74.2,55.4,30.11,NNE,23,0.7,2.7,52,0.00,,,0.88,WUHU216HW,2013-01-05 18:44:00,
2013-01-05 13:49:00,74.3,56.1,30.11,NNE,23,0.0,2.7,53,0.00,,,0.88,WUHU216HW,2013-01-05 18:49:00,
2013-01-05 13:54:00,74.3,55.5,30.11,East,90,2.7,2.7,52,0.00,,,0.88,WUHU216HW,2013-01-05 18:54:00,
2013-01-05 13:59:00,74.0,55.7,30.11,NE,45,3.1,3.1,53,0.00,,,0.88,WUHU216HW,2013-01-05 18:59:00,
2013-01-05 14:04:00,73.6,54.8,30.10,NE,45,1.8,4.5,52,0.00,,,0.88,WUHU216HW,2013-01-05 19:04:00,
2013-01-05 14:09:00,73.8,55.0,30.10,NNE,23,0.2,4.5,52,0.00,,,0.88,WUHU216HW,2013-01-05 19:09:00,
2013-01-05 14:14:00,73.8,55.0,30.10,NE,45,2.9,2.9,52,0.00,,,0.88,WUHU216HW,2013-01-05 19:14:00,
2013-01-05 14:19:00,73.4,54.2,30.10,East,90,0.2,2.9,51,0.00,,,0.88,WUHU216HW,2013-01-05 19:19:00,
2013-01-05 14:24:00,73.3,54.0,30.10,ENE,68,1.3,1.3,51,0.00,,,0.88,WUHU216HW,2013-01-05 19:24:00,
2013-01-05 14:29:00,73.1,53.8,30.10,NNE,23,1.3,2.5,51,0.00,,,0.88,WUHU216HW,2013-01-05 19:29:00,
2013-01-05 14:34:00,73.1,53.3,30.10,ENE,68,1.8,4.7,50,0.00,,,0.88,WUHU216HW,2013-01-05 19:34:00,
2013-01-05 14:39:00,72.9,53.2,30.10,North,0,1.8,4.7,50,0.00,,,0.88,WUHU216HW,2013-01-05 19:39:00,
2013-01-05 14:44:00,72.9,53.2,30.10,North,0,1.1,3.1,50,0.00,,,0.88,WUHU216HW,2013-01-05 19:44:00,
2013-01-05 14:49:00,72.9,53.2,30.09,ENE,68,3.4,3.4,50,0.00,,,0.88,WUHU216HW,2013-01-05 19:49:00,
2013-01-05 14:54:00,72.4,52.1,30.09,NNE,23,0.2,3.4,49,0.00,,,0.88,WUHU216HW,2013-01-05 19:54:00,
2013-01-05 14:59:00,72.0,50.6,30.10,East,90,1.1,3.4,47,0.00,,,0.88,WUHU216HW,2013-01-05 19:59:00,
2013-01-05 15:04:00,72.2,51.3,30.10,ENE,68,2.9,2.9,48,0.00,,,0.88,WUHU216HW,2013-01-05 20:04:00,
2013-01-05 15:09:00,72.4,50.9,30.10,East,90,0.7,2.9,47,0.00,,,0.88,WUHU216HW,2013-01-05 20:09:00,
2013-01-05 15:14:00,72.4,50.9,30.10,NE,45,1.8,2.9,47,0.00,,,0.88,WUHU216HW,2013-01-05 20:14:00,
2013-01-05 15:19:00,72.4,50.3,30.10,East,90,1.8,1.8,46,0.00,,,0.88,WUHU216HW,2013-01-05 20:19:00,
2013-01-05 15:24:00,72.2,50.1,30.10,NE,45,1.1,1.8,46,0.00,,,0.88,WUHU216HW,2013-01-05 20:24:00,
2013-01-05 15:29:00,71.6,49.1,30.10,East,90,1.8,3.8,45,0.00,,,0.88,WUHU216HW,2013-01-05 20:29:00,
2013-01-05 15:34:00,71.6,48.4,30.11,ENE,68,0.4,4.0,44,0.00,,,0.88,WUHU216HW,2013-01-05 20:34:00,
2013-01-05 15:39:00,71.6,47.9,30.11,NNW,338,0.4,4.0,43,0.00,,,0.88,WUHU216HW,2013-01-05 20:39:00,
2013-01-05 15:44:00,71.6,46.7,30.11,East,90,0.2,1.1,41,0.00,,,0.88,WUHU216HW,2013-01-05 20:44:00,
2013-01-05 15:49:00,71.3,46.4,30.10,ENE,68,2.5,2.5,41,0.00,,,0.88,WUHU216HW,2013-01-05 20:49:00,
2013-01-05 15:54:00,70.9,46.0,30.11,NE,45,1.1,2.5,41,0.00,,,0.88,WUHU216HW,2013-01-05 20:54:00,
2013-01-05 15:59:00,70.6,45.1,30.10,NE,45,2.7,3.4,40,0.00,,,0.88,WUHU216HW,2013-01-05 20:59:00,
2013-01-05 16:04:00,70.2,43.3,30.11,NE,45,0.4,3.4,38,0.00,,,0.88,WUHU216HW,2013-01-05 21:04:00,
2013-01-05 16:09:00,70.0,41.7,30.11,East,90,0.4,2.7,36,0.00,,,0.88,WUHU216HW,2013-01-05 21:09:00,
2013-01-05 16:14:00,69.7,39.9,30.11,NNE,23,2.7,2.7,34,0.00,,,0.88,WUHU216HW,2013-01-05 21:14:00,
2013-01-05 16:19:00,69.5,39.7,30.12,ENE,68,1.1,2.7,34,0.00,,,0.88,WUHU216HW,2013-01-05 21:19:00,
2013-01-05 16:24:00,69.3,38.8,30.12,ENE,68,0.0,2.7,33,0.00,,,0.88,WUHU216HW,2013-01-05 21:24:00,
2013-01-05 16:29:00,69.1,37.9,30.12,NE,45,0.2,1.1,32,0.00,,,0.88,WUHU216HW,2013-01-05 21:29:00,
2013-01-05 16:34:00,68.8,36.1,30.12,East,90,0.0,1.8,30,0.00,,,0.88,WUHU216HW,2013-01-05 21:34:00,
2013-01-05 16:39:00,68.6,34.9,30.11,ENE,68,1.1,1.8,29,0.00,,,0.88,WUHU216HW,2013-01-05 21:39:00,
2013-01-05 16:44:00,68.2,30.7,30.12,NE,45,0.4,1.1,25,0.00,,,0.88,WUHU216HW,2013-01-05 21:44:00,
2013-01-05 16:49:00,68.2,29.7,30.12,East,90,0.2,1.1,24,0.00,,,0.88,WUHU216HW,2013-01-05 21:49:00,
2013-01-05 16:54:00,68.0,28.5,30.12,NE,45,0.4,0.4,23,0.00,,,0.88,WUHU216HW,2013-01-05 21:54:00,
2013-01-05 16:59:00,67.9,26.4,30.11,NE,45,1.6,1.6,21,0.00,,,0.88,WUHU216HW,2013-01-05 21:59:00,
2013-01-05 17:04:00,67.3,21.7,30.12,ENE,68,2.7,2.7,18,0.00,,,0.88,WUHU216HW,2013-01-05 22:04:00,
2013-01-05 17:09:00,67.0,18.2,30.11,ENE,68,3.6,3.6,16,0.00,,,0.88,WUHU216HW,2013-01-05 22:09:00,
2013-01-05 17:14:00,67.0,16.7,30.12,NE,45,0.7,3.6,15,0.00,,,0.88,WUHU216HW,2013-01-05 22:14:00,
2013-01-05 17:19:00,66.6,11.5,30.12,NE,45,1.8,3.6,12,0.00,,,0.88,WUHU216HW,2013-01-05 22:19:00,
2013-01-05 17:24:00,66.4,8.3,30.12,ENE,68,1.8,1.8,10,0.00,,,0.88,WUHU216HW,2013-01-05 22:24:00,
2013-01-05 17:29:00,66.2,8.1,30.12,ENE,68,0.2,1.8,8,0.00,,,0.88,WUHU216HW,2013-01-05 22:29:00,
2013-01-05 17:34:00,66.1,7.9,30.12,ENE,68,0.0,1.8,6,0.00,,,0.88,WUHU216HW,2013-01-05 22:34:00,
2013-01-05 17:39:00,66.1,7.9,30.12,ENE,68,1.6,1.6,6,0.00,,,0.88,WUHU216HW,2013-01-05 22:39:00,
2013-01-05 17:44:00,65.7,7.7,30.13,NE,45,3.4,3.4,4,0.00,,,0.88,WUHU216HW,2013-01-05 22:44:00,
2013-01-05 17:49:00,65.5,7.6,30.13,NE,45,0.0,3.4,3,0.00,,,0.88,WUHU216HW,2013-01-05 22:49:00,
2013-01-05 17:54:00,65.5,7.6,30.12,ENE,68,1.1,3.4,2,0.00,,,0.88,WUHU216HW,2013-01-05 22:54:00,
2013-01-05 17:59:00,65.3,7.4,30.13,ENE,68,3.1,3.1,1,0.00,,,0.88,WUHU216HW,2013-01-05 22:59:00,
2013-01-05 18:04:00,65.2,7.2,30.13,NE,45,1.1,3.1,1,0.00,,,0.88,WUHU216HW,2013-01-05 23:04:00,
2013-01-05 18:09:00,65.0,7.1,30.13,ENE,68,0.4,1.1,1,0.00,,,0.88,WUHU216HW,2013-01-05 23:09:00,
2013-01-05 18:14:00,64.8,6.9,30.13,ESE,113,2.2,2.5,1,0.00,,,0.88,WUHU216HW,2013-01-05 23:14:00,
2013-01-05 18:19:00,64.6,6.9,30.13,NE,45,1.6,2.5,1,0.00,,,0.88,WUHU216HW,2013-01-05 23:19:00,
2013-01-05 18:24:00,64.6,6.9,30.13,East,90,2.5,2.5,1,0.00,,,0.88,WUHU216HW,2013-01-05 23:24:00,
2013-01-05 18:29:00,64.4,6.7,30.14,ENE,68,2.0,2.5,3,0.00,,,0.88,WUHU216HW,2013-01-05 23:29:00,
2013-01-05 18:34:00,64.4,6.7,30.14,NNE,23,0.0,2.0,3,0.00,,,0.88,WUHU216HW,2013-01-05 23:34:00,
2013-01-05 18:39:00,64.3,6.6,30.14,ENE,68,0.2,2.0,3,0.00,,,0.88,WUHU216HW,2013-01-05 23:39:00,
2013-01-05 18:44:00,64.1,6.4,30.14,NNE,23,0.0,0.2,1,0.00,,,0.88,WUHU216HW,2013-01-05 23:44:00,
2013-01-05 18:49:00,64.1,6.4,30.14,ENE,68,1.3,1.3,1,0.00,,,0.88,WUHU216HW,2013-01-05 23:49:00,
2013-01-05 18:54:00,63.9,6.3,30.15,North,0,0.0,1.3,1,0.00,,,0.88,WUHU216HW,2013-01-05 23:54:00,
2013-01-05 18:59:00,63.7,6.1,30.15,ENE,68,0.2,1.3,1,0.00,,,0.88,WUHU216HW,2013-01-05 23:59:00,
2013-01-05 19:04:00,63.7,6.1,30.15,NE,45,0.0,0.2,1,0.00,,,0.88,WUHU216HW,2013-01-06 00:04:00,
2013-01-05 19:09:00,63.7,6.1,30.15,ENE,68,0.2,0.2,2,0.00,,,0.88,WUHU216HW,2013-01-06 00:09:00,
2013-01-05 19:14:00,63.5,6.0,30.15,ENE,68,0.0,0.2,1,0.00,,,0.88,WUHU216HW,2013-01-06 00:14:00,
2013-01-05 19:19:00,63.5,6.0,30.15,ENE,68,0.0,0.0,1,0.00,,,0.88,WUHU216HW,2013-01-06 00:19:00,
2013-01-05 19:24:00,63.5,6.0,30.15,NE,45,0.0,0.0,1,0.00,,,0.88,WUHU216HW,2013-01-06 00:24:00,
2013-01-05 19:29:00,63.4,6.0,30.15,ENE,68,2.2,2.2,2,0.00,,,0.88,WUHU216HW,2013-01-06 00:29:00,
2013-01-05 19:34:00,63.4,6.0,30.15,ENE,68,0.0,2.2,2,0.00,,,0.88,WUHU216HW,2013-01-06 00:34:00,
2013-01-05 19:39:00,63.2,5.8,30.15,NNW,338,0.0,2.2,2,0.00,,,0.88,WUHU216HW,2013-01-06 00:39:00,
2013-01-05 19:44:00,63.0,5.7,30.15,NE,45,0.0,0.2,1,0.00,,,0.88,WUHU216HW,2013-01-06 00:44:00,
2013-01-05 19:49:00,63.0,5.7,30.15,SW,225,0.2,0.2,1,0.00,,,0.88,WUHU216HW,2013-01-06 00:49:00,
2013-01-05 19:54:00,63.0,5.7,30.15,NE,45,0.7,0.7,1,0.00,,,0.88,WUHU216HW,2013-01-06 00:54:00,
2013-01-05 19:59:00,62.8,5.5,30.15,East,90,0.4,0.7,1,0.00,,,0.88,WUHU216HW,2013-01-06 00:59:00,
2013-01-05 20:04:00,62.8,5.5,30.15,NE,45,0.4,0.4,1,0.00,,,0.88,WUHU216HW,2013-01-06 01:04:00,
2013-01-05 20:09:00,62.6,5.4,30.15,North,0,2.5,2.5,1,0.00,,,0.88,WUHU216HW,2013-01-06 01:09:00,
2013-01-05 20:14:00,62.6,5.4,30.15,NE,45,0.2,2.5,1,0.00,,,0.88,WUHU216HW,2013-01-06 01:14:00,
2013-01-05 20:19:00,62.6,5.4,30.15,NE,45,0.0,0.2,1,0.00,,,0.88,WUHU216HW,2013-01-06 01:19:00,
2013-01-05 20:24:00,62.5,5.2,30.15,NE,45,0.9,0.9,1,0.00,,,0.88,WUHU216HW,2013-01-06 01:24:00,
2013-01-05 20:29:00,62.3,5.1,30.15,NE,45,0.4,2.5,1,0.00,,,0.88,WUHU216HW,2013-01-06 01:29:00,
2013-01-05 20:34:00,62.3,5.1,30.15,NE,45,0.0,2.5,1,0.00,,,0.88,WUHU216HW,2013-01-06 01:34:00,
2013-01-05 20:39:00,62.3,5.1,30.15,NE,45,2.5,2.5,1,0.00,,,0.88,WUHU216HW,2013-01-06 01:39:00,
2013-01-05 20:44:00,62.1,5.0,30.14,NNE,23,0.2,2.5,1,0.00,,,0.88,WUHU216HW,2013-01-06 01:44:00,
2013-01-05 20:49:00,62.1,5.0,30.14,NE,45,0.0,0.4,1,0.00,,,0.88,WUHU216HW,2013-01-06 01:49:00,
2013-01-05 20:54:00,61.9,4.9,30.15,NE,45,0.7,0.7,1,0.00,,,0.88,WUHU216HW,2013-01-06 01:54:00,
2013-01-05 20:59:00,61.9,4.9,30.15,NW,315,0.2,0.7,1,0.00,,,0.88,WUHU216HW,2013-01-06 01:59:00,
2013-01-05 21:04:00,61.9,4.9,30.15,NE,45,0.4,0.4,1,0.00,,,0.88,WUHU216HW,2013-01-06 02:04:00,
2013-01-05 21:09:00,61.7,4.7,30.15,North,0,0.0,0.4,1,0.00,,,0.88,WUHU216HW,2013-01-06 02:09:00,
2013-01-05 21:14:00,61.6,4.5,30.15,NNE,23,0.4,1.3,1,0.00,,,0.88,WUHU216HW,2013-01-06 02:14:00,
2013-01-05 21:19:00,61.6,4.5,30.15,NE,45,0.2,1.3,1,0.00,,,0.88,WUHU216HW,2013-01-06 02:19:00,
2013-01-05 21:24:00,61.4,4.4,30.15,NNE,23,0.7,1.3,1,0.00,,,0.88,WUHU216HW,2013-01-06 02:24:00,
2013-01-05 21:29:00,61.4,4.4,30.15,NE,45,0.0,0.7,1,0.00,,,0.88,WUHU216HW,2013-01-06 02:29:00,
2013-01-05 21:34:00,61.4,4.4,30.15,ENE,68,1.1,1.1,1,0.00,,,0.88,WUHU216HW,2013-01-06 02:34:00,
2013-01-05 21:39:00,61.2,4.2,30.15,North,0,0.0,1.1,1,0.00,,,0.88,WUHU216HW,2013-01-06 02:39:00,
2013-01-05 21:44:00,61.2,4.2,30.15,East,90,0.0,1.1,1,0.00,,,0.88,WUHU216HW,2013-01-06 02:44:00,
2013-01-05 21:49:00,61.2,4.2,30.15,NE,45,0.0,0.2,1,0.00,,,0.88,WUHU216HW,2013-01-06 02:49:00,
2013-01-05 21:54:00,61.2,4.2,30.15,NE,45,0.0,0.2,1,0.00,,,0.88,WUHU216HW,2013-01-06 02:54:00,
2013-01-05 21:59:00,61.2,4.2,30.15,NE,45,0.0,0.0,1,0.00,,,0.88,WUHU216HW,2013-01-06 02:59:00,
2013-01-05 22:04:00,61.0,4.2,30.15,ENE,68,0.0,0.0,1,0.00,,,0.88,WUHU216HW,2013-01-06 03:04:00,
2013-01-05 22:09:00,60.8,4.0,30.14,East,90,1.8,1.8,1,0.00,,,0.88,WUHU216HW,2013-01-06 03:09:00,
2013-01-05 22:14:00,60.8,4.0,30.14,ENE,68,0.0,1.8,1,0.00,,,0.88,WUHU216HW,2013-01-06 03:14:00,
2013-01-05 22:19:00,60.7,3.8,30.14,East,90,0.0,1.8,1,0.00,,,0.88,WUHU216HW,2013-01-06 03:19:00,
2013-01-05 22:24:00,60.7,3.8,30.14,NE,45,0.2,0.2,1,0.00,,,0.88,WUHU216HW,2013-01-06 03:24:00,
2013-01-05 22:29:00,60.5,3.7,30.14,NE,45,0.0,0.2,1,0.00,,,0.88,WUHU216HW,2013-01-06 03:29:00,
2013-01-05 22:34:00,60.3,3.5,30.14,NE,45,1.6,1.6,1,0.00,,,0.88,WUHU216HW,2013-01-06 03:34:00,
2013-01-05 22:39:00,60.1,3.4,30.14,ENE,68,0.2,1.6,1,0.00,,,0.88,WUHU216HW,2013-01-06 03:39:00,
2013-01-05 22:44:00,60.1,3.4,30.14,East,90,0.2,1.6,1,0.00,,,0.88,WUHU216HW,2013-01-06 03:44:00,
2013-01-05 22:49:00,59.9,3.2,30.14,East,90,0.0,0.2,1,0.00,,,0.88,WUHU216HW,2013-01-06 03:49:00,
2013-01-05 22:54:00,59.9,3.2,30.13,East,90,0.0,0.2,1,0.00,,,0.88,WUHU216HW,2013-01-06 03:54:00,
2013-01-05 22:59:00,59.9,3.2,30.13,East,90,0.0,0.0,1,0.00,,,0.88,WUHU216HW,2013-01-06 03:59:00,
2013-01-05 23:04:00,59.9,3.2,30.13,East,90,0.0,0.0,1,0.00,,,0.88,WUHU216HW,2013-01-06 04:04:00,
2013-01-05 23:09:00,59.9,3.2,30.13,ENE,68,0.0,0.0,1,0.00,,,0.88,WUHU216HW,2013-01-06 04:09:00,
2013-01-05 23:14:00,59.8,3.1,30.13,ENE,68,0.0,0.0,1,0.00,,,0.88,WUHU216HW,2013-01-06 04:14:00,
2013-01-05 23:20:00,59.8,3.1,30.13,ENE,68,0.0,0.0,1,0.00,,,0.88,WUHU216HW,2013-01-06 04:20:00,
2013-01-05 23:25:00,59.8,3.1,30.13,ENE,68,0.0,0.0,1,0.00,,,0.88,WUHU216HW,2013-01-06 04:25:00,
2013-01-05 23:30:00,59.8,3.1,30.13,ENE,68,0.0,0.0,1,0.00,,,0.88,WUHU216HW,2013-01-06 04:30:00,
2013-01-05 23:35:00,59.6,3.0,30.13,ENE,68,0.0,0.0,1,0.00,,,0.88,WUHU216HW,2013-01-06 04:35:00,
2013-01-05 23:40:00,59.6,3.0,30.13,ENE,68,0.0,0.0,1,0.00,,,0.88,WUHU216HW,2013-01-06 04:40:00,
2013-01-05 23:45:00,59.6,3.0,30.13,ENE,68,0.0,0.0,1,0.00,,,0.88,WUHU216HW,2013-01-06 04:45:00,
2013-01-05 23:50:00,59.6,3.0,30.13,ENE,68,0.0,0.0,1,0.00,,,0.88,WUHU216HW,2013-01-06 04:50:00,
2013-01-05 23:55:00,59.6,3.0,30.12,North,0,0.0,0.0,1,0.00,,,0.88,WUHU216HW,2013-01-06 04:55:00,